Time;durP1;ratioP1;P1;durP2;ratioP2;P2;SDS_P1;SDS_P2;PMS_P1;PMS_P2;Temp;Humidity;BMP_temperature;BMP_pressure;BME280_temperature;BME280_humidity;BME280_pressure;Samples;Min_cycle;Max_cycle;Signal;HPM_P1;HPM_P2
2022/08/23 00:01:32;;;;;;;5.55;5.05;;;;;;;;;;6244569;23;20014;-77
2022/08/23 00:04:00;;;;;;;5.85;5.07;;;;;;;;;;6244840;23;20000;-78
2022/08/23 00:06:26;;;;;;;6.40;5.05;;;;;;;;;;6244566;23;20000;-77
2022/08/23 00:08:53;;;;;;;5.50;5.00;;;;;;;;;;6244769;23;20004;-77
2022/08/23 00:11:25;;;;;;;5.90;5.28;;;;;;;;;;6244547;23;20003;-77
2022/08/23 00:13:51;;;;;;;5.78;5.28;;;;;;;;;;6244989;23;20000;-77
2022/08/23 00:16:17;;;;;;;5.75;5.13;;;;;;;;;;6244337;23;20480;-78
2022/08/23 00:18:43;;;;;;;6.38;4.88;;;;;;;;;;6244610;23;20013;-78
2022/08/23 00:21:12;;;;;;;5.80;5.18;;;;;;;;;;6244801;23;20000;-78
2022/08/23 00:23:38;;;;;;;5.85;5.32;;;;;;;;;;6244917;22;20378;-78
2022/08/23 00:26:04;;;;;;;7.20;5.28;;;;;;;;;;6244791;23;20008;-77
2022/08/23 00:28:31;;;;;;;7.50;6.22;;;;;;;;;;6244800;22;20028;-77
2022/08/23 00:30:57;;;;;;;7.30;5.65;;;;;;;;;;6244660;23;20004;-77
2022/08/23 00:33:24;;;;;;;7.38;6.65;;;;;;;;;;6244550;23;20028;-77
2022/08/23 00:35:50;;;;;;;8.13;6.30;;;;;;;;;;6244804;23;20031;-77
2022/08/23 00:38:16;;;;;;;11.80;6.40;;;;;;;;;;6246470;23;20000;-78
2022/08/23 00:40:43;;;;;;;7.72;6.22;;;;;;;;;;6246628;23;20071;-78
2022/08/23 00:48:47;;;;;;;9.05;6.72;;;;;;;;;;6246280;23;20015;-78
2022/08/23 00:51:17;;;;;;;7.90;6.90;;;;;;;;;;6246730;23;20414;-78
2022/08/23 00:53:46;;;;;;;8.02;7.03;;;;;;;;;;6246476;23;20364;-78
2022/08/23 00:56:13;;;;;;;10.32;8.05;;;;;;;;;;6246572;23;20008;-78
2022/08/23 00:58:40;;;;;;;9.35;8.43;;;;;;;;;;6246086;23;20028;-78
2022/08/23 01:01:07;;;;;;;9.82;8.23;;;;;;;;;;6246674;22;20000;-78
2022/08/23 01:03:34;;;;;;;9.90;8.88;;;;;;;;;;6246514;23;20423;-79
2022/08/23 01:06:06;;;;;;;11.05;9.57;;;;;;;;;;6246636;23;20008;-77
2022/08/23 01:08:33;;;;;;;9.77;8.80;;;;;;;;;;6246422;23;20095;-78
2022/08/23 01:11:02;;;;;;;11.32;10.00;;;;;;;;;;6246384;23;20399;-77
2022/08/23 01:13:34;;;;;;;11.73;10.25;;;;;;;;;;6246328;23;20000;-78
2022/08/23 01:16:04;;;;;;;13.07;10.77;;;;;;;;;;6246412;23;20023;-78
2022/08/23 01:18:30;;;;;;;11.57;10.35;;;;;;;;;;6246106;23;20004;-78
2022/08/23 01:21:04;;;;;;;12.40;10.10;;;;;;;;;;6246432;23;20332;-78
2022/08/23 01:23:35;;;;;;;11.40;10.27;;;;;;;;;;6245906;23;20057;-78
2022/08/23 01:26:01;;;;;;;12.07;10.57;;;;;;;;;;6246071;23;20421;-78
2022/08/23 01:28:28;;;;;;;11.15;10.02;;;;;;;;;;6246195;23;20324;-78
2022/08/23 01:30:54;;;;;;;10.82;9.73;;;;;;;;;;6246546;23;20327;-78
2022/08/23 01:33:20;;;;;;;11.32;9.50;;;;;;;;;;6246155;23;20066;-78
2022/08/23 01:35:49;;;;;;;11.90;9.63;;;;;;;;;;6244365;23;20390;-77
2022/08/23 01:38:15;;;;;;;10.52;9.43;;;;;;;;;;6246036;23;20335;-77
2022/08/23 01:40:42;;;;;;;10.70;9.60;;;;;;;;;;6245959;23;19996;-77
2022/08/23 01:43:09;;;;;;;10.13;9.13;;;;;;;;;;6246306;23;20004;-77
2022/08/23 01:45:35;;;;;;;12.20;9.57;;;;;;;;;;6246097;23;20008;-76
2022/08/23 01:48:02;;;;;;;10.50;9.48;;;;;;;;;;6245714;23;20335;-77
2022/08/23 01:50:28;;;;;;;10.52;9.43;;;;;;;;;;6245685;23;20011;-76
2022/08/23 01:52:54;;;;;;;11.50;10.40;;;;;;;;;;6246129;23;20015;-77
2022/08/23 01:55:21;;;;;;;11.50;10.30;;;;;;;;;;6245792;23;20016;-78
2022/08/23 01:57:49;;;;;;;11.15;9.98;;;;;;;;;;6245980;23;20328;-77
2022/08/23 02:00:15;;;;;;;11.18;9.98;;;;;;;;;;6246226;23;20537;-77
2022/08/23 02:02:42;;;;;;;12.18;11.02;;;;;;;;;;6245430;23;20004;-78
2022/08/23 02:05:08;;;;;;;12.00;10.70;;;;;;;;;;6245987;23;20386;-78
2022/08/23 02:07:34;;;;;;;13.07;10.77;;;;;;;;;;6245684;23;20023;-78
2022/08/23 02:10:01;;;;;;;12.52;10.77;;;;;;;;;;6246078;23;20439;-77
2022/08/23 02:12:27;;;;;;;12.43;11.13;;;;;;;;;;6245769;23;20004;-78
2022/08/23 02:14:53;;;;;;;11.80;10.60;;;;;;;;;;6245977;23;20439;-78
2022/08/23 02:17:20;;;;;;;15.82;12.52;;;;;;;;;;6246067;23;20004;-78
2022/08/23 02:19:47;;;;;;;12.93;10.85;;;;;;;;;;6245887;22;20007;-78
2022/08/23 02:22:13;;;;;;;15.40;12.52;;;;;;;;;;6245930;23;20066;-78
2022/08/23 02:24:43;;;;;;;18.35;16.55;;;;;;;;;;6245682;22;20005;-78
2022/08/23 02:27:10;;;;;;;17.70;14.60;;;;;;;;;;6245713;23;20058;-78
2022/08/23 02:29:36;;;;;;;17.15;14.45;;;;;;;;;;6245474;23;20440;-77
2022/08/23 02:32:03;;;;;;;16.90;14.80;;;;;;;;;;6245825;23;20000;-78
2022/08/23 02:34:30;;;;;;;15.75;13.82;;;;;;;;;;6245377;23;20332;-78
2022/08/23 02:36:56;;;;;;;14.63;13.10;;;;;;;;;;6245875;22;20011;-77
2022/08/23 02:39:23;;;;;;;14.30;12.88;;;;;;;;;;6245651;23;20085;-78
2022/08/23 02:41:50;;;;;;;14.38;12.35;;;;;;;;;;6245502;23;20046;-77
2022/08/23 02:44:17;;;;;;;13.70;12.18;;;;;;;;;;6244117;23;20008;-77
2022/08/23 02:46:44;;;;;;;13.02;11.68;;;;;;;;;;6245419;22;20000;-77
2022/08/23 02:49:10;;;;;;;13.80;12.05;;;;;;;;;;6245537;22;20015;-77
2022/08/23 02:51:36;;;;;;;13.40;10.93;;;;;;;;;;6245222;23;20436;-78
2022/08/23 02:54:03;;;;;;;13.23;10.52;;;;;;;;;;6245537;23;20087;-78
2022/08/23 02:56:29;;;;;;;11.90;10.68;;;;;;;;;;6245484;23;20007;-78
2022/08/23 02:58:55;;;;;;;12.45;11.07;;;;;;;;;;6244893;23;20031;-78
2022/08/23 03:01:26;;;;;;;11.65;10.45;;;;;;;;;;6245534;23;20035;-78
2022/08/23 03:03:52;;;;;;;13.15;10.25;;;;;;;;;;6245413;23;20079;-78
2022/08/23 03:06:18;;;;;;;11.75;10.63;;;;;;;;;;6245541;23;20003;-78
2022/08/23 03:08:44;;;;;;;11.50;10.30;;;;;;;;;;6245112;23;20003;-78
2022/08/23 03:11:15;;;;;;;13.90;11.15;;;;;;;;;;6245331;23;20012;-78
2022/08/23 03:13:42;;;;;;;13.00;10.50;;;;;;;;;;6245270;22;20007;-78
2022/08/23 03:16:09;;;;;;;11.68;10.68;;;;;;;;;;6245351;23;20497;-78
2022/08/23 03:18:35;;;;;;;12.18;10.40;;;;;;;;;;6245061;23;20450;-78
2022/08/23 03:21:02;;;;;;;13.52;10.82;;;;;;;;;;6245453;23;20069;-78
2022/08/23 03:23:28;;;;;;;11.05;9.32;;;;;;;;;;6245208;23;20000;-78
2022/08/23 03:25:56;;;;;;;15.45;11.40;;;;;;;;;;6244559;23;20024;-78
2022/08/23 03:28:23;;;;;;;13.32;10.80;;;;;;;;;;6245371;22;20075;-78
2022/08/23 03:30:49;;;;;;;12.80;10.73;;;;;;;;;;6245025;23;20056;-78
2022/08/23 03:33:15;;;;;;;12.85;11.50;;;;;;;;;;6245289;23;20004;-78
2022/08/23 03:35:41;;;;;;;13.13;11.57;;;;;;;;;;6244773;22;20039;-78
2022/08/23 03:38:08;;;;;;;16.95;15.18;;;;;;;;;;6245263;23;20377;-78
2022/08/23 03:40:34;;;;;;;43.60;35.38;;;;;;;;;;6245054;23;20004;-78
2022/08/23 03:43:00;;;;;;;27.25;23.00;;;;;;;;;;6245182;23;20450;-78
2022/08/23 03:45:27;;;;;;;19.67;15.73;;;;;;;;;;6244537;23;20000;-78
2022/08/23 03:47:53;;;;;;;13.63;12.23;;;;;;;;;;6244688;23;20007;-78
2022/08/23 03:50:20;;;;;;;14.43;11.98;;;;;;;;;;6245190;23;20022;-78
2022/08/23 03:52:46;;;;;;;12.80;11.48;;;;;;;;;;6244787;23;20007;-78
2022/08/23 03:55:13;;;;;;;12.65;11.32;;;;;;;;;;6244950;23;20012;-78
2022/08/23 03:57:39;;;;;;;13.98;12.07;;;;;;;;;;6244781;23;19999;-78
2022/08/23 04:00:07;;;;;;;14.18;11.38;;;;;;;;;;6245248;23;20008;-78
2022/08/23 04:02:33;;;;;;;13.20;11.75;;;;;;;;;;6244961;22;20008;-78
2022/08/23 04:04:59;;;;;;;18.08;12.23;;;;;;;;;;6244764;23;20075;-78
2022/08/23 04:07:26;;;;;;;15.20;11.10;;;;;;;;;;6244982;23;20091;-78
2022/08/23 04:09:52;;;;;;;15.07;12.10;;;;;;;;;;6244688;23;20000;-78
2022/08/23 04:12:18;;;;;;;13.57;11.98;;;;;;;;;;6244601;23;20038;-78
2022/08/23 04:14:44;;;;;;;13.50;12.10;;;;;;;;;;6244361;23;20008;-78
2022/08/23 04:17:11;;;;;;;15.40;11.73;;;;;;;;;;6244876;23;20070;-78
2022/08/23 04:19:37;;;;;;;14.68;12.98;;;;;;;;;;6244987;23;20008;-79
2022/08/23 04:22:03;;;;;;;13.57;12.10;;;;;;;;;;6244612;23;20010;-79
2022/08/23 04:24:29;;;;;;;14.07;12.00;;;;;;;;;;6245000;23;20305;-78
2022/08/23 04:26:55;;;;;;;26.02;21.88;;;;;;;;;;6244408;23;20057;-79
2022/08/23 04:29:22;;;;;;;16.52;12.15;;;;;;;;;;6244930;23;20009;-78
2022/08/23 04:31:48;;;;;;;15.18;12.45;;;;;;;;;;6244555;22;20004;-78
2022/08/23 04:34:15;;;;;;;13.77;12.43;;;;;;;;;;6244481;22;20304;-79
2022/08/23 04:36:41;;;;;;;16.15;13.52;;;;;;;;;;6244293;22;20059;-78
2022/08/23 04:39:08;;;;;;;14.73;11.85;;;;;;;;;;6243224;23;20017;-78
2022/08/23 04:44:20;;;;;;;14.77;12.63;;;;;;;;;;6244545;23;20065;-78
2022/08/23 04:46:47;;;;;;;12.25;10.95;;;;;;;;;;6244212;23;20481;-79
2022/08/23 04:49:13;;;;;;;14.05;11.82;;;;;;;;;;6244683;22;20061;-78
2022/08/23 04:51:39;;;;;;;12.68;11.45;;;;;;;;;;6244126;23;20008;-78
2022/08/23 04:54:06;;;;;;;13.50;11.98;;;;;;;;;;6244736;23;20004;-78
2022/08/23 04:56:33;;;;;;;14.15;12.75;;;;;;;;;;6244738;22;20008;-78
2022/08/23 04:58:59;;;;;;;13.55;11.68;;;;;;;;;;6244199;23;20478;-79
2022/08/23 05:01:25;;;;;;;13.43;11.30;;;;;;;;;;6244524;23;20007;-79
2022/08/23 05:03:52;;;;;;;13.57;12.18;;;;;;;;;;6244231;23;20322;-78
2022/08/23 05:06:18;;;;;;;15.02;12.43;;;;;;;;;;6244711;23;20015;-78
2022/08/23 05:08:44;;;;;;;13.32;11.50;;;;;;;;;;6244419;23;20308;-78
2022/08/23 05:11:10;;;;;;;13.00;11.68;;;;;;;;;;6244325;23;20019;-79
2022/08/23 05:13:37;;;;;;;12.88;11.68;;;;;;;;;;6244723;23;20006;-79
2022/08/23 05:16:04;;;;;;;13.05;11.85;;;;;;;;;;6244210;23;20012;-79
2022/08/23 05:18:30;;;;;;;14.68;11.95;;;;;;;;;;6244433;23;20005;-79
2022/08/23 05:20:56;;;;;;;15.25;12.07;;;;;;;;;;6244075;23;20004;-79
2022/08/23 05:23:22;;;;;;;12.43;11.13;;;;;;;;;;6245392;23;20015;-78
2022/08/23 05:25:48;;;;;;;14.20;10.90;;;;;;;;;;6245710;23;20081;-78
2022/08/23 05:28:18;;;;;;;14.20;11.15;;;;;;;;;;6241786;23;20008;-79
2022/08/23 05:30:45;;;;;;;11.93;10.68;;;;;;;;;;6240298;23;20004;-78
2022/08/23 05:33:12;;;;;;;13.30;11.90;;;;;;;;;;6243410;22;20004;-79
2022/08/23 05:35:39;;;;;;;12.85;11.07;;;;;;;;;;6239893;23;20016;-79
2022/08/23 05:38:05;;;;;;;12.90;11.45;;;;;;;;;;6242092;22;20015;-79
2022/08/23 05:40:31;;;;;;;11.93;10.75;;;;;;;;;;6242590;23;20000;-78
2022/08/23 05:42:57;;;;;;;12.45;11.25;;;;;;;;;;6242011;23;20513;-79
2022/08/23 05:45:24;;;;;;;11.60;10.13;;;;;;;;;;6243789;23;20071;-78
2022/08/23 05:47:50;;;;;;;11.32;10.13;;;;;;;;;;6244281;22;20012;-80
2022/08/23 05:50:19;;;;;;;11.40;10.05;;;;;;;;;;6243699;23;20005;-78
2022/08/23 05:52:46;;;;;;;11.70;10.50;;;;;;;;;;6240296;23;20008;-78
2022/08/23 05:55:12;;;;;;;12.38;11.07;;;;;;;;;;6243464;22;20015;-78
2022/08/23 05:57:38;;;;;;;11.50;10.25;;;;;;;;;;6243198;23;20004;-78
2022/08/23 06:00:07;;;;;;;11.57;10.23;;;;;;;;;;6243913;23;20004;-77
2022/08/23 06:02:33;;;;;;;13.38;10.52;;;;;;;;;;6243574;22;20435;-80
2022/08/23 06:04:59;;;;;;;13.50;11.48;;;;;;;;;;6242897;23;20008;-78
2022/08/23 06:07:25;;;;;;;12.68;10.48;;;;;;;;;;6243983;23;20000;-79
2022/08/23 06:09:51;;;;;;;11.52;9.77;;;;;;;;;;6242055;23;20008;-79
2022/08/23 06:12:17;;;;;;;12.40;10.10;;;;;;;;;;6243384;23;20085;-81
2022/08/23 06:14:43;;;;;;;14.10;11.35;;;;;;;;;;6242871;23;20281;-80
2022/08/23 06:17:10;;;;;;;11.18;9.48;;;;;;;;;;6241355;23;20006;-79
2022/08/23 06:19:36;;;;;;;9.82;8.93;;;;;;;;;;6243554;22;20031;-79
2022/08/23 06:22:03;;;;;;;18.10;16.38;;;;;;;;;;6243154;23;20004;-79
2022/08/23 06:24:29;;;;;;;9.13;8.10;;;;;;;;;;6244672;23;20050;-80
2022/08/23 06:26:55;;;;;;;8.35;7.55;;;;;;;;;;6243640;22;20016;-80
2022/08/23 06:29:21;;;;;;;11.10;10.00;;;;;;;;;;6242269;23;20047;-79
2022/08/23 06:31:48;;;;;;;10.07;8.00;;;;;;;;;;6241578;23;20008;-80
2022/08/23 06:34:17;;;;;;;10.32;9.32;;;;;;;;;;6243810;23;20008;-79
2022/08/23 06:36:45;;;;;;;10.95;9.85;;;;;;;;;;6243699;23;20091;-81
2022/08/23 06:39:12;;;;;;;19.23;17.27;;;;;;;;;;6243974;22;20400;-80
2022/08/23 06:41:39;;;;;;;10.43;9.25;;;;;;;;;;6243081;23;20458;-80
2022/08/23 06:44:07;;;;;;;8.18;6.95;;;;;;;;;;6242752;23;20031;-82
2022/08/23 06:46:33;;;;;;;12.27;11.07;;;;;;;;;;6244110;22;20004;-79
2022/08/23 06:49:03;;;;;;;10.38;9.02;;;;;;;;;;6241718;23;20075;-79
2022/08/23 06:51:38;;;;;;;8.50;7.55;;;;;;;;;;6244115;22;20004;-82
2022/08/23 06:54:03;;;;;;;;;;;;;;;;;;6241285;23;20431;-80
2022/08/23 06:56:30;;;;;;;10.90;8.52;;;;;;;;;;6243132;22;19919;-81
2022/08/23 06:58:56;;;;;;;10.38;9.25;;;;;;;;;;6241997;23;20084;-81
2022/08/23 07:01:22;;;;;;;12.32;10.85;;;;;;;;;;6242491;23;20701;-84
2022/08/23 07:03:54;;;;;;;38.72;34.58;;;;;;;;;;6241875;23;20004;-80
2022/08/23 07:06:21;;;;;;;15.90;14.23;;;;;;;;;;6242841;22;20724;-80
2022/08/23 07:08:47;;;;;;;9.77;8.60;;;;;;;;;;6241179;23;20058;-79
2022/08/23 07:11:13;;;;;;;15.23;13.73;;;;;;;;;;6240491;23;20330;-77
2022/08/23 07:13:39;;;;;;;10.90;9.93;;;;;;;;;;6242179;23;20075;-79
2022/08/23 07:16:05;;;;;;;8.65;7.85;;;;;;;;;;6242655;23;20432;-77
2022/08/23 07:18:31;;;;;;;9.85;8.85;;;;;;;;;;6242568;23;20004;-77
2022/08/23 07:20:58;;;;;;;10.40;9.38;;;;;;;;;;6243008;23;20011;-81
2022/08/23 07:23:25;;;;;;;11.07;8.30;;;;;;;;;;6240976;23;20078;-80
2022/08/23 07:25:51;;;;;;;9.48;8.52;;;;;;;;;;6240755;23;20015;-79
2022/08/23 07:28:18;;;;;;;8.70;7.78;;;;;;;;;;6240591;23;20012;-79
2022/08/23 07:30:44;;;;;;;17.35;15.65;;;;;;;;;;6242750;23;20008;-78
2022/08/23 07:33:10;;;;;;;9.13;8.20;;;;;;;;;;6242736;22;20012;-79
2022/08/23 07:35:36;;;;;;;10.23;9.15;;;;;;;;;;6241637;23;20012;-78
2022/08/23 07:38:03;;;;;;;8.77;7.97;;;;;;;;;;6241846;23;20031;-80
2022/08/23 07:40:29;;;;;;;8.52;7.50;;;;;;;;;;6241933;23;20000;-77
2022/08/23 07:42:58;;;;;;;9.27;8.25;;;;;;;;;;6242711;23;20000;-80
2022/08/23 07:45:24;;;;;;;11.73;8.30;;;;;;;;;;6242978;23;20027;-77
2022/08/23 07:47:50;;;;;;;8.95;8.23;;;;;;;;;;6241393;23;20094;-79
2022/08/23 07:50:16;;;;;;;14.85;13.25;;;;;;;;;;6242251;23;20014;-78
2022/08/23 07:52:44;;;;;;;11.80;10.70;;;;;;;;;;6241862;23;20003;-80
2022/08/23 07:55:13;;;;;;;11.07;9.07;;;;;;;;;;6242119;23;20012;-80
2022/08/23 07:57:39;;;;;;;11.80;10.55;;;;;;;;;;6242158;23;20067;-79
2022/08/23 08:00:06;;;;;;;13.38;12.15;;;;;;;;;;6240371;23;20055;-78
2022/08/23 08:02:33;;;;;;;11.57;10.48;;;;;;;;;;6241600;23;20300;-78
2022/08/23 08:04:59;;;;;;;12.82;9.40;;;;;;;;;;6240471;23;20022;-79
2022/08/23 08:07:26;;;;;;;11.50;10.20;;;;;;;;;;6242159;22;20011;-78
2022/08/23 08:09:52;;;;;;;11.82;10.57;;;;;;;;;;6241516;22;20008;-80
2022/08/23 08:12:19;;;;;;;9.95;8.70;;;;;;;;;;6243027;23;20063;-80
2022/08/23 08:14:47;;;;;;;10.65;9.55;;;;;;;;;;6241778;22;20008;-80
2022/08/23 08:17:13;;;;;;;11.48;10.05;;;;;;;;;;6243634;22;20004;-79
2022/08/23 08:19:40;;;;;;;9.95;9.05;;;;;;;;;;6241298;23;20085;-79
2022/08/23 08:22:07;;;;;;;10.52;9.15;;;;;;;;;;6242264;22;20000;-78
2022/08/23 08:24:33;;;;;;;10.88;9.88;;;;;;;;;;6241014;23;20075;-79
2022/08/23 08:26:59;;;;;;;10.27;9.27;;;;;;;;;;6241123;23;20095;-79
2022/08/23 08:29:25;;;;;;;10.07;9.13;;;;;;;;;;6241782;23;20031;-77
2022/08/23 08:31:51;;;;;;;10.65;9.57;;;;;;;;;;6242000;23;20376;-77
2022/08/23 08:34:18;;;;;;;10.65;9.55;;;;;;;;;;6243137;23;20008;-77
2022/08/23 08:36:46;;;;;;;10.80;9.77;;;;;;;;;;6242938;23;20019;-79
2022/08/23 08:39:13;;;;;;;11.02;9.68;;;;;;;;;;6242739;23;20004;-77
2022/08/23 08:41:55;;;;;;;10.52;9.48;;;;;;;;;;6241170;23;20004;-78
2022/08/23 08:44:29;;;;;;;12.18;9.48;;;;;;;;;;6243326;22;20007;-77
2022/08/23 08:46:56;;;;;;;10.80;9.70;;;;;;;;;;6242518;23;20008;-77
2022/08/23 08:49:41;;;;;;;11.10;9.77;;;;;;;;;;6242228;23;20008;-77
2022/08/23 08:52:26;;;;;;;11.20;9.75;;;;;;;;;;6241090;23;20324;-76
2022/08/23 08:55:11;;;;;;;12.70;9.27;;;;;;;;;;6241287;23;20003;-76
2022/08/23 08:57:39;;;;;;;9.77;8.82;;;;;;;;;;6243743;23;20001;-78
2022/08/23 09:00:17;;;;;;;12.10;10.90;;;;;;;;;;6244377;22;20515;-77
2022/08/23 09:02:44;;;;;;;10.63;9.73;;;;;;;;;;6244896;23;20075;-77
2022/08/23 09:05:30;;;;;;;15.90;14.40;;;;;;;;;;6243982;23;20004;-72
2022/08/23 09:08:22;;;;;;;15.80;14.02;;;;;;;;;;6243900;22;20103;-75
2022/08/23 09:10:56;;;;;;;10.45;9.57;;;;;;;;;;6208077;22;20012;-76
2022/08/23 09:13:28;;;;;;;11.13;10.02;;;;;;;;;;6245080;23;20079;-76
2022/08/23 09:16:20;;;;;;;11.20;10.05;;;;;;;;;;6243805;23;20431;-75
2022/08/23 09:18:47;;;;;;;11.02;9.88;;;;;;;;;;6208992;22;20359;-76
2022/08/23 09:21:14;;;;;;;10.65;9.60;;;;;;;;;;6243874;23;20331;-76
2022/08/23 09:23:42;;;;;;;10.43;9.38;;;;;;;;;;6245175;22;20008;-76
2022/08/23 09:26:21;;;;;;;10.85;9.85;;;;;;;;;;6244135;23;20012;-76
2022/08/23 09:28:49;;;;;;;10.38;9.48;;;;;;;;;;6244269;22;20008;-76
2022/08/23 09:31:35;;;;;;;10.73;9.63;;;;;;;;;;6243485;22;20000;-75
2022/08/23 09:34:01;;;;;;;12.48;11.27;;;;;;;;;;6241976;23;20351;-76
2022/08/23 09:36:31;;;;;;;11.57;10.50;;;;;;;;;;6240062;23;20097;-75
2022/08/23 09:38:58;;;;;;;11.80;10.65;;;;;;;;;;6243126;23;20436;-76
2022/08/23 09:41:27;;;;;;;12.10;10.90;;;;;;;;;;6244824;23;20419;-75
2022/08/23 09:43:54;;;;;;;13.35;11.30;;;;;;;;;;6243476;23;20091;-75
2022/08/23 09:46:25;;;;;;;11.38;10.27;;;;;;;;;;6244595;22;20004;-75
2022/08/23 09:48:54;;;;;;;11.00;9.82;;;;;;;;;;6243437;23;20004;-75
2022/08/23 09:51:40;;;;;;;10.45;9.35;;;;;;;;;;6243962;22;20007;-76
2022/08/23 09:54:10;;;;;;;11.00;9.90;;;;;;;;;;6243060;22;20018;-74
2022/08/23 09:56:41;;;;;;;12.05;9.88;;;;;;;;;;6243424;22;20012;-75
2022/08/23 09:59:25;;;;;;;10.73;9.77;;;;;;;;;;6243222;23;20039;-75
2022/08/23 10:01:53;;;;;;;10.55;9.55;;;;;;;;;;6243684;23;20130;-75
2022/08/23 10:04:23;;;;;;;14.40;11.38;;;;;;;;;;6243295;23;20759;-74
2022/08/23 10:06:49;;;;;;;15.45;13.38;;;;;;;;;;6244542;22;20019;-75
2022/08/23 10:09:34;;;;;;;12.93;11.57;;;;;;;;;;6244417;23;20004;-74
2022/08/23 10:12:01;;;;;;;12.35;11.25;;;;;;;;;;6242502;23;20075;-75
2022/08/23 10:14:28;;;;;;;10.73;9.73;;;;;;;;;;6242409;23;20328;-77
2022/08/23 10:17:13;;;;;;;12.98;11.68;;;;;;;;;;6242437;23;20081;-76
2022/08/23 10:19:43;;;;;;;11.50;10.30;;;;;;;;;;6244629;22;20031;-76
2022/08/23 10:22:18;;;;;;;12.60;11.45;;;;;;;;;;6244449;23;20008;-77
2022/08/23 10:24:44;;;;;;;12.27;11.00;;;;;;;;;;6243925;22;20032;-77
2022/08/23 10:30:20;;;;;;;13.65;11.10;;;;;;;;;;6243603;23;20023;-77
2022/08/23 10:33:06;;;;;;;11.65;10.55;;;;;;;;;;6242338;23;20378;-77
2022/08/23 10:35:41;;;;;;;12.48;11.27;;;;;;;;;;6241845;22;20389;-80
2022/08/23 10:38:26;;;;;;;12.27;11.13;;;;;;;;;;6241228;23;20014;-79
2022/08/23 10:41:15;;;;;;;12.13;11.02;;;;;;;;;;6244207;23;20447;-77
2022/08/23 10:43:49;;;;;;;12.13;10.93;;;;;;;;;;6231937;23;20433;-77
2022/08/23 10:46:15;;;;;;;12.13;10.90;;;;;;;;;;6243685;22;20020;-78
2022/08/23 10:48:42;;;;;;;19.95;12.27;;;;;;;;;;6242109;23;20011;-77
2022/08/23 10:51:21;;;;;;;12.23;10.90;;;;;;;;;;6242675;22;20035;-77
2022/08/23 10:53:58;;;;;;;12.98;11.77;;;;;;;;;;6242298;22;20375;-76
2022/08/23 10:56:25;;;;;;;12.35;11.25;;;;;;;;;;6243166;22;20012;-77
2022/08/23 10:58:55;;;;;;;13.65;12.25;;;;;;;;;;6244286;23;20012;-76
2022/08/23 11:01:24;;;;;;;15.10;13.73;;;;;;;;;;6243256;22;20130;-77
2022/08/23 11:03:55;;;;;;;14.63;13.23;;;;;;;;;;6241638;23;20082;-77
2022/08/23 11:06:40;;;;;;;15.57;13.90;;;;;;;;;;6241830;23;20008;-76
2022/08/23 11:09:25;;;;;;;14.77;13.43;;;;;;;;;;6242695;22;20004;-77
2022/08/23 11:12:06;;;;;;;14.50;13.23;;;;;;;;;;6241769;23;20053;-77
2022/08/23 11:14:51;;;;;;;12.32;11.25;;;;;;;;;;6243533;23;20007;-77
2022/08/23 11:17:36;;;;;;;14.60;13.30;;;;;;;;;;6242670;22;20039;-77
2022/08/23 11:20:08;;;;;;;13.20;12.00;;;;;;;;;;6242271;23;20011;-78
2022/08/23 11:22:54;;;;;;;13.43;12.23;;;;;;;;;;6240074;23;20505;-76
2022/08/23 11:25:20;;;;;;;12.98;11.60;;;;;;;;;;6240808;23;20482;-77
2022/08/23 11:27:47;;;;;;;13.90;12.60;;;;;;;;;;6241965;23;20115;-77
2022/08/23 11:30:32;;;;;;;13.63;12.43;;;;;;;;;;6242147;23;20007;-77
2022/08/23 11:33:21;;;;;;;13.80;12.45;;;;;;;;;;6242641;23;20000;-77
2022/08/23 11:35:48;;;;;;;14.43;12.98;;;;;;;;;;6242222;23;20343;-78
2022/08/23 11:38:15;;;;;;;21.48;19.27;;;;;;;;;;6243766;23;20004;-78
2022/08/23 11:40:51;;;;;;;14.48;12.85;;;;;;;;;;6243455;23;20439;-77
2022/08/23 11:43:28;;;;;;;13.02;11.75;;;;;;;;;;6243912;22;20008;-78
2022/08/23 11:46:11;;;;;;;13.30;12.10;;;;;;;;;;6240298;23;20004;-76
2022/08/23 11:48:39;;;;;;;14.02;12.63;;;;;;;;;;6242124;23;20015;-77
2022/08/23 11:51:24;;;;;;;15.32;13.82;;;;;;;;;;6244527;23;20003;-77
2022/08/23 11:54:02;;;;;;;13.48;12.18;;;;;;;;;;6243646;23;20003;-75
2022/08/23 11:56:34;;;;;;;13.82;12.52;;;;;;;;;;6241309;23;20436;-75
2022/08/23 11:59:19;;;;;;;12.30;11.27;;;;;;;;;;6243633;23;19996;-75
2022/08/23 12:01:45;;;;;;;12.60;11.30;;;;;;;;;;6243422;23;20004;-75
2022/08/23 12:04:25;;;;;;;13.95;12.73;;;;;;;;;;6244697;23;20000;-74
2022/08/23 12:07:01;;;;;;;12.57;11.38;;;;;;;;;;6244715;23;20023;-75
2022/08/23 12:09:28;;;;;;;12.80;11.50;;;;;;;;;;6244809;22;20316;-75
2022/08/23 12:11:57;;;;;;;14.20;11.80;;;;;;;;;;6244258;23;20087;-75
2022/08/23 12:14:42;;;;;;;13.48;12.00;;;;;;;;;;6244212;22;20050;-76
2022/08/23 12:17:27;;;;;;;13.88;12.50;;;;;;;;;;6244457;23;20015;-75
2022/08/23 12:19:57;;;;;;;13.52;12.38;;;;;;;;;;6244126;22;20436;-76
2022/08/23 12:22:28;;;;;;;13.45;12.15;;;;;;;;;;6244423;23;20075;-75
2022/08/23 12:25:05;;;;;;;14.57;13.20;;;;;;;;;;6244626;22;20354;-76
2022/08/23 12:27:44;;;;;;;14.45;11.88;;;;;;;;;;6243897;23;20020;-76
2022/08/23 12:30:29;;;;;;;12.43;11.23;;;;;;;;;;6244437;23;20432;-75
2022/08/23 12:33:01;;;;;;;13.98;12.48;;;;;;;;;;6246345;23;20004;-76
2022/08/23 12:35:27;;;;;;;13.07;11.98;;;;;;;;;;6244943;23;20055;-76
2022/08/23 12:37:53;;;;;;;13.38;11.57;;;;;;;;;;6246332;23;20004;-75
2022/08/23 12:40:46;;;;;;;12.05;11.00;;;;;;;;;;6245645;23;20000;-75
2022/08/23 12:43:31;;;;;;;13.68;11.93;;;;;;;;;;6241845;23;20065;-75
2022/08/23 12:46:01;;;;;;;14.65;13.25;;;;;;;;;;6246309;23;20490;-75
2022/08/23 12:48:29;;;;;;;18.23;16.63;;;;;;;;;;6244994;23;20590;-75
2022/08/23 12:51:16;;;;;;;11.65;10.55;;;;;;;;;;6246048;23;20004;-75
2022/08/23 12:53:44;;;;;;;12.02;11.02;;;;;;;;;;6245127;23;20010;-76
2022/08/23 12:56:28;;;;;;;25.42;23.02;;;;;;;;;;6245311;22;20016;-76
2022/08/23 12:59:01;;;;;;;11.32;10.38;;;;;;;;;;6246190;23;20004;-76
2022/08/23 13:01:29;;;;;;;10.98;9.75;;;;;;;;;;6243545;23;20004;-76
2022/08/23 13:04:02;;;;;;;11.40;10.23;;;;;;;;;;6246278;23;20075;-74
2022/08/23 13:06:31;;;;;;;11.27;10.07;;;;;;;;;;6246587;23;20007;-75
2022/08/23 13:09:06;;;;;;;10.40;9.30;;;;;;;;;;6246719;23;20004;-76
2022/08/23 13:11:33;;;;;;;10.15;9.18;;;;;;;;;;6246181;23;20039;-75
2022/08/23 13:14:00;;;;;;;9.60;8.65;;;;;;;;;;6246421;23;20004;-74
2022/08/23 13:16:44;;;;;;;9.05;8.00;;;;;;;;;;6246462;22;20050;-74
2022/08/23 13:19:29;;;;;;;9.85;8.88;;;;;;;;;;6246882;23;20011;-74
2022/08/23 13:22:14;;;;;;;9.35;8.45;;;;;;;;;;6246881;22;20008;-75
2022/08/23 13:24:44;;;;;;;9.52;8.63;;;;;;;;;;6246076;23;20058;-75
2022/08/23 13:27:19;;;;;;;9.60;8.60;;;;;;;;;;6246628;23;20015;-74
2022/08/23 13:30:04;;;;;;;11.10;10.07;;;;;;;;;;6246208;23;20008;-76
2022/08/23 13:32:33;;;;;;;9.93;9.02;;;;;;;;;;6246330;22;20007;-76
2022/08/23 13:35:17;;;;;;;9.68;8.77;;;;;;;;;;6246490;23;20004;-83
2022/08/23 13:37:46;;;;;;;10.02;8.82;;;;;;;;;;6246492;23;20043;-86
2022/08/23 13:40:15;;;;;;;8.25;7.45;;;;;;;;;;6244814;23;20087;-76
2022/08/23 13:43:00;;;;;;;6.68;6.00;;;;;;;;;;6246273;23;20134;-76
2022/08/23 13:45:31;;;;;;;5.85;5.28;;;;;;;;;;6246283;23;20000;-76
2022/08/23 13:48:00;;;;;;;6.97;5.07;;;;;;;;;;6245602;23;20004;-76
2022/08/23 13:50:28;;;;;;;5.97;4.70;;;;;;;;;;6246853;23;20012;-75
2022/08/23 13:52:54;;;;;;;5.47;4.53;;;;;;;;;;6245793;23;20004;-74
2022/08/23 13:55:21;;;;;;;5.05;4.55;;;;;;;;;;6246122;23;20313;-75
2022/08/23 13:57:47;;;;;;;5.40;4.90;;;;;;;;;;6246251;23;20058;-75
2022/08/23 14:00:13;;;;;;;4.70;4.25;;;;;;;;;;6246174;23;20374;-75
2022/08/23 14:02:39;;;;;;;5.05;4.55;;;;;;;;;;6245837;23;20012;-76
2022/08/23 14:05:06;;;;;;;5.13;4.45;;;;;;;;;;6246294;23;20321;-75
2022/08/23 14:07:33;;;;;;;6.22;5.15;;;;;;;;;;6246394;22;20004;-75
2022/08/23 14:09:59;;;;;;;4.80;4.32;;;;;;;;;;6245865;23;20416;-75
2022/08/23 14:12:27;;;;;;;6.65;4.70;;;;;;;;;;6246328;23;20004;-75
2022/08/23 14:14:53;;;;;;;6.00;5.40;;;;;;;;;;6245915;23;20000;-76
2022/08/23 14:17:20;;;;;;;5.15;3.35;;;;;;;;;;6245337;23;20011;-76
2022/08/23 14:19:47;;;;;;;5.03;3.40;;;;;;;;;;6246670;23;20073;-76
2022/08/23 14:22:13;;;;;;;7.15;3.83;;;;;;;;;;6246090;22;20353;-76
2022/08/23 14:24:40;;;;;;;4.40;3.78;;;;;;;;;;6245804;23;19996;-76
2022/08/23 14:27:06;;;;;;;4.72;3.40;;;;;;;;;;6245803;23;20019;-76
2022/08/23 14:29:32;;;;;;;4.93;3.70;;;;;;;;;;6246042;23;20004;-77
2022/08/23 14:31:59;;;;;;;7.93;4.72;;;;;;;;;;6245125;23;20004;-76
2022/08/23 14:34:25;;;;;;;3.83;3.42;;;;;;;;;;6246109;23;20087;-76
2022/08/23 14:36:52;;;;;;;4.32;3.45;;;;;;;;;;6245461;23;20019;-76
2022/08/23 14:39:19;;;;;;;4.72;4.32;;;;;;;;;;6245505;23;20000;-76
2022/08/23 14:41:46;;;;;;;5.40;4.22;;;;;;;;;;6244004;23;20379;-76
2022/08/23 14:44:12;;;;;;;5.13;3.65;;;;;;;;;;6245493;23;20425;-77
2022/08/23 14:46:39;;;;;;;3.92;3.53;;;;;;;;;;6245671;22;20042;-76
2022/08/23 14:49:05;;;;;;;6.68;4.20;;;;;;;;;;6245338;23;20069;-76
2022/08/23 14:51:34;;;;;;;5.30;4.30;;;;;;;;;;6245374;23;20008;-76